Japan Airlines Virtual Airport Information Service

Charlotte Douglas International Airport

ICAO: KCLT Country: United States
Latitude: 35.214 Longitude: -80.9431
Latest Arrival : AAL1005 (1B) (KMYR-KCLT) Latest Departure : AAL704 (KCLT-EDDF)


WX CaptureLIVE
Data provided by noaa.gov | Fetched at 07:23:52

METAR : KCLT 090652Z 02008KT 10SM SCT021 SCT080 23/21 A2990 RMK AO2 SLP116 T02280206 $

TAF : KCLT 090536Z 0906/1012 02005KT P6SM SCT080 SCT250 FM091200 03007KT P6SM SCT020 SCT050 FM091600 03007KT P6SM SCT050 FM100200 02003KT P6SM FEW250


Runway Data for KCLT
Data provided by openaviationdata.com

Runway ID Mag Var Hdg Length Elevation Surface ILS Freq ILS Id ILS Slope
5 -7 55° 7501 ft 748 ft Asphalt 110.95 ICLT 3
18L -7 182° 8686 ft 748 ft Asphalt 110.35 IVKQ 3
18R -7 182° 10016 ft 748 ft Concrete 111.3 IPEP 3
23 -7 235° 7501 ft 748 ft Asphalt 109.5 IAPU 3
36L -7 10016 ft 748 ft Concrete 111.7 IDQG 3
36R -7 8686 ft 748 ft Asphalt 108.9 IBQC 3

Charlotte Douglas International Airport, United States
Use only for reference purposes



Not for navigational purposes.